Time,TemperatureF,DewpointF,PressureIn,WindDirection,WindDirectionDegrees,WindSpeedMPH,WindSpeedGustMPH,Humidity,HourlyPrecipIn,Conditions,Clouds,dailyrainin,SoftwareType,DateUTC
2013-04-07 00:07:00,76.4,71.0,29.97,SE,133,0.0,2.0,84,0.00,,,0.00,weatherlink.com 1.10,2013-04-07 04:07:00,
2013-04-07 00:22:00,76.1,71.0,29.97,ESE,123,0.0,2.0,85,0.00,,,0.00,weatherlink.com 1.10,2013-04-07 04:22:00,
2013-04-07 00:37:00,75.4,71.0,29.96,ESE,123,0.0,1.0,86,0.00,,,0.00,weatherlink.com 1.10,2013-04-07 04:37:00,
2013-04-07 00:52:00,75.1,71.0,29.96,ESE,122,0.0,0.0,87,0.00,,,0.00,weatherlink.com 1.10,2013-04-07 04:52:00,
2013-04-07 01:07:00,74.8,71.0,29.96,ESE,123,0.0,1.0,87,0.00,,,0.00,weatherlink.com 1.10,2013-04-07 05:07:00,
2013-04-07 01:37:00,74.0,70.0,29.94,SE,127,1.0,1.0,88,0.00,,,0.00,weatherlink.com 1.10,2013-04-07 05:37:00,
2013-04-07 01:52:00,73.6,70.0,29.94,SSE,160,0.0,1.0,88,0.00,,,0.00,weatherlink.com 1.10,2013-04-07 05:52:00,
2013-04-07 04:03:00,72.7,69.0,29.90,SE,131,0.0,1.0,89,0.00,,,0.00,weatherlink.com 1.10,2013-04-07 08:03:00,
2013-04-07 04:53:00,73.1,70.0,29.91,SE,133,0.0,2.0,89,0.00,,,0.00,weatherlink.com 1.10,2013-04-07 08:53:00,
2013-04-07 05:08:00,73.2,70.0,29.92,SE,133,0.0,1.0,89,0.00,,,0.00,weatherlink.com 1.10,2013-04-07 09:08:00,
2013-04-07 05:23:00,73.1,69.0,29.92,SE,131,0.0,1.0,88,0.00,,,0.00,weatherlink.com 1.10,2013-04-07 09:23:00,
2013-04-07 05:38:00,73.7,70.0,29.93,SE,142,0.0,2.0,89,0.00,,,0.00,weatherlink.com 1.10,2013-04-07 09:38:00,
2013-04-07 05:53:00,73.8,71.0,29.94,SE,141,0.0,0.0,90,0.01,,,0.01,weatherlink.com 1.10,2013-04-07 09:53:00,
2013-04-07 06:08:00,73.9,71.0,29.94,SE,142,0.0,1.0,91,0.01,,,0.01,weatherlink.com 1.10,2013-04-07 10:08:00,
2013-04-07 06:23:00,73.7,71.0,29.94,East,93,1.0,2.0,91,0.01,,,0.01,weatherlink.com 1.10,2013-04-07 10:23:00,
2013-04-07 06:38:00,73.7,71.0,29.95,East,94,0.0,1.0,92,0.01,,,0.01,weatherlink.com 1.10,2013-04-07 10:38:00,
2013-04-07 06:53:00,74.0,72.0,29.95,East,93,0.0,1.0,93,0.00,,,0.01,weatherlink.com 1.10,2013-04-07 10:53:00,
2013-04-07 07:08:00,74.2,72.0,29.95,East,93,0.0,1.0,92,0.00,,,0.01,weatherlink.com 1.10,2013-04-07 11:08:00,
2013-04-07 07:23:00,74.8,73.0,29.96,East,94,0.0,0.0,93,0.00,,,0.01,weatherlink.com 1.10,2013-04-07 11:23:00,
2013-04-07 07:38:00,76.1,74.0,29.97,East,93,0.0,1.0,92,0.00,,,0.01,weatherlink.com 1.10,2013-04-07 11:38:00,
2013-04-07 07:53:00,76.7,73.0,29.97,East,93,0.0,1.0,89,0.00,,,0.01,weatherlink.com 1.10,2013-04-07 11:53:00,
2013-04-07 08:08:00,77.8,74.0,29.98,East,93,0.0,1.0,88,0.00,,,0.01,weatherlink.com 1.10,2013-04-07 12:08:00,
2013-04-07 08:23:00,78.6,74.0,29.98,East,93,0.0,1.0,86,0.00,,,0.01,weatherlink.com 1.10,2013-04-07 12:23:00,
2013-04-07 08:53:00,80.2,75.0,29.99,ESE,120,0.0,1.0,84,0.00,,,0.01,weatherlink.com 1.10,2013-04-07 12:53:00,
2013-04-07 09:09:00,82.3,75.0,29.99,East,79,2.0,5.0,78,0.00,,,0.01,weatherlink.com 1.10,2013-04-07 13:09:00,
2013-04-07 09:23:00,83.0,76.0,29.99,NNE,26,3.0,5.0,79,0.00,,,0.01,weatherlink.com 1.10,2013-04-07 13:23:00,
2013-04-07 09:38:00,82.7,76.0,29.99,NE,43,3.0,7.0,79,0.00,,,0.01,weatherlink.com 1.10,2013-04-07 13:38:00,
2013-04-07 09:54:00,83.3,76.0,29.99,ESE,103,6.0,6.0,78,0.00,,,0.01,weatherlink.com 1.10,2013-04-07 13:54:00,
2013-04-07 10:24:00,83.9,75.0,29.99,NE,49,3.0,10.0,75,0.00,,,0.01,weatherlink.com 1.10,2013-04-07 14:24:00,
2013-04-07 10:39:00,84.9,74.0,29.99,ENE,62,4.0,8.0,70,0.00,,,0.01,weatherlink.com 1.10,2013-04-07 14:39:00,
2013-04-07 10:54:00,85.7,74.0,29.98,NE,56,4.0,7.0,67,0.00,,,0.01,weatherlink.com 1.10,2013-04-07 14:54:00,
2013-04-07 11:09:00,86.5,73.0,29.98,ESE,107,1.0,8.0,65,0.00,,,0.01,weatherlink.com 1.10,2013-04-07 15:09:00,
2013-04-07 11:24:00,87.8,74.0,29.97,ESE,120,3.0,5.0,63,0.00,,,0.01,weatherlink.com 1.10,2013-04-07 15:24:00,
2013-04-07 11:39:00,88.1,75.0,29.97,SSW,211,2.0,3.0,65,0.00,,,0.01,weatherlink.com 1.10,2013-04-07 15:39:00,
2013-04-07 11:54:00,90.0,75.0,29.96,South,174,2.0,4.0,61,0.00,,,0.01,weatherlink.com 1.10,2013-04-07 15:54:00,
2013-04-07 12:09:00,92.2,75.0,29.96,SE,125,2.0,4.0,57,0.00,,,0.01,weatherlink.com 1.10,2013-04-07 16:09:00,
2013-04-07 12:24:00,91.8,74.0,29.95,SE,124,5.0,8.0,57,0.00,,,0.01,weatherlink.com 1.10,2013-04-07 16:24:00,
2013-04-07 12:39:00,92.8,74.0,29.94,East,86,2.0,10.0,54,0.00,,,0.01,weatherlink.com 1.10,2013-04-07 16:39:00,
2013-04-07 12:54:00,93.1,73.0,29.94,SE,139,3.0,8.0,52,0.00,,,0.01,weatherlink.com 1.10,2013-04-07 16:54:00,
2013-04-07 13:09:00,93.6,71.0,29.94,SSE,154,2.0,8.0,48,0.00,,,0.01,weatherlink.com 1.10,2013-04-07 17:09:00,
2013-04-07 13:24:00,93.2,70.0,29.93,ESE,107,2.0,11.0,47,0.00,,,0.01,weatherlink.com 1.10,2013-04-07 17:24:00,
2013-04-07 13:39:00,92.1,69.0,29.93,SE,145,3.0,12.0,47,0.00,,,0.01,weatherlink.com 1.10,2013-04-07 17:39:00,
2013-04-07 13:54:00,91.7,68.0,29.92,SE,131,3.0,12.0,46,0.00,,,0.01,weatherlink.com 1.10,2013-04-07 17:54:00,
2013-04-07 14:09:00,91.6,70.0,29.91,SE,129,3.0,9.0,50,0.00,,,0.01,weatherlink.com 1.10,2013-04-07 18:09:00,
2013-04-07 14:24:00,92.8,70.0,29.91,South,190,1.0,7.0,48,0.00,,,0.01,weatherlink.com 1.10,2013-04-07 18:24:00,
2013-04-07 14:39:00,93.5,71.0,29.90,SW,235,4.0,6.0,48,0.00,,,0.01,weatherlink.com 1.10,2013-04-07 18:39:00,
2013-04-07 14:54:00,93.3,70.0,29.90,SSE,156,2.0,8.0,47,0.00,,,0.01,weatherlink.com 1.10,2013-04-07 18:54:00,
2013-04-07 15:09:00,92.6,70.0,29.91,South,179,2.0,8.0,48,0.00,,,0.01,weatherlink.com 1.10,2013-04-07 19:09:00,
2013-04-07 15:24:00,93.2,71.0,29.90,SSE,160,4.0,6.0,49,0.00,,,0.01,weatherlink.com 1.10,2013-04-07 19:24:00,
2013-04-07 15:39:00,92.7,71.0,29.90,SSW,193,3.0,6.0,50,0.00,,,0.01,weatherlink.com 1.10,2013-04-07 19:39:00,
2013-04-07 15:54:00,92.8,70.0,29.90,SSE,158,1.0,5.0,48,0.00,,,0.01,weatherlink.com 1.10,2013-04-07 19:54:00,
2013-04-07 16:09:00,90.7,70.0,29.90,SE,135,1.0,10.0,50,0.00,,,0.01,weatherlink.com 1.10,2013-04-07 20:09:00,
2013-04-07 16:25:00,90.9,69.0,29.90,West,266,4.0,10.0,49,0.00,,,0.01,weatherlink.com 1.10,2013-04-07 20:25:00,
2013-04-07 16:39:00,91.0,70.0,29.90,SSE,159,2.0,7.0,50,0.00,,,0.01,weatherlink.com 1.10,2013-04-07 20:39:00,
2013-04-07 16:54:00,91.5,70.0,29.90,SW,217,2.0,5.0,49,0.00,,,0.01,weatherlink.com 1.10,2013-04-07 20:54:00,
2013-04-07 17:10:00,90.1,69.0,29.91,SSE,158,3.0,6.0,50,0.00,,,0.01,weatherlink.com 1.10,2013-04-07 21:10:00,
2013-04-07 17:40:00,89.1,68.0,29.91,SSW,206,2.0,4.0,50,0.00,,,0.01,weatherlink.com 1.10,2013-04-07 21:40:00,
2013-04-07 17:54:00,88.1,68.0,29.91,ESE,112,2.0,5.0,51,0.00,,,0.01,weatherlink.com 1.10,2013-04-07 21:54:00,
2013-04-07 18:09:00,86.8,68.0,29.92,South,174,2.0,6.0,54,0.00,,,0.01,weatherlink.com 1.10,2013-04-07 22:09:00,
2013-04-07 18:24:00,85.0,74.0,29.92,ENE,78,4.0,7.0,69,0.00,,,0.01,weatherlink.com 1.10,2013-04-07 22:24:00,
2013-04-07 18:39:00,82.7,74.0,29.92,East,90,2.0,8.0,74,0.00,,,0.01,weatherlink.com 1.10,2013-04-07 22:39:00,
2013-04-07 18:54:00,82.0,74.0,29.93,East,93,4.0,7.0,77,0.00,,,0.01,weatherlink.com 1.10,2013-04-07 22:54:00,
2013-04-07 19:09:00,81.6,74.0,29.93,East,91,1.0,6.0,78,0.00,,,0.01,weatherlink.com 1.10,2013-04-07 23:09:00,
2013-04-07 19:24:00,81.2,74.0,29.93,East,89,5.0,6.0,79,0.00,,,0.01,weatherlink.com 1.10,2013-04-07 23:24:00,
2013-04-07 19:40:00,81.2,74.0,29.94,ESE,116,1.0,4.0,79,0.00,,,0.01,weatherlink.com 1.10,2013-04-07 23:40:00,
2013-04-07 19:54:00,80.8,74.0,29.94,ESE,112,2.0,3.0,79,0.00,,,0.01,weatherlink.com 1.10,2013-04-07 23:54:00,
2013-04-07 20:09:00,80.6,74.0,29.95,ENE,73,4.0,6.0,81,0.00,,,0.01,weatherlink.com 1.10,2013-04-08 00:09:00,
2013-04-07 20:24:00,80.4,74.0,29.95,East,98,2.0,5.0,81,0.00,,,0.01,weatherlink.com 1.10,2013-04-08 00:24:00,
2013-04-07 20:39:00,80.3,74.0,29.95,East,82,1.0,3.0,81,0.00,,,0.01,weatherlink.com 1.10,2013-04-08 00:39:00,
2013-04-07 20:54:00,80.1,74.0,29.96,ESE,103,1.0,3.0,82,0.00,,,0.01,weatherlink.com 1.10,2013-04-08 00:54:00,
2013-04-07 21:09:00,80.0,74.0,29.96,East,92,0.0,2.0,81,0.00,,,0.01,weatherlink.com 1.10,2013-04-08 01:09:00,
2013-04-07 21:24:00,79.7,74.0,29.97,SE,128,1.0,4.0,82,0.00,,,0.01,weatherlink.com 1.10,2013-04-08 01:24:00,
2013-04-07 21:39:00,79.6,74.0,29.98,East,87,2.0,4.0,83,0.00,,,0.01,weatherlink.com 1.10,2013-04-08 01:39:00,
2013-04-07 21:54:00,79.4,74.0,29.98,East,98,1.0,3.0,83,0.00,,,0.01,weatherlink.com 1.10,2013-04-08 01:54:00,
2013-04-07 22:09:00,78.8,73.0,29.98,SE,133,1.0,3.0,82,0.00,,,0.01,weatherlink.com 1.10,2013-04-08 02:09:00,
2013-04-07 22:24:00,78.5,73.0,29.98,ESE,117,0.0,1.0,83,0.00,,,0.01,weatherlink.com 1.10,2013-04-08 02:24:00,
2013-04-07 22:39:00,78.4,73.0,29.99,ESE,117,1.0,2.0,82,0.00,,,0.01,weatherlink.com 1.10,2013-04-08 02:39:00,
2013-04-07 22:54:00,78.2,72.0,29.99,SE,131,1.0,1.0,82,0.00,,,0.01,weatherlink.com 1.10,2013-04-08 02:54:00,
2013-04-07 23:10:00,77.8,72.0,29.99,SE,138,1.0,2.0,82,0.00,,,0.01,weatherlink.com 1.10,2013-04-08 03:10:00,
2013-04-07 23:24:00,77.8,72.0,29.99,SE,133,1.0,2.0,83,0.00,,,0.01,weatherlink.com 1.10,2013-04-08 03:24:00,
2013-04-07 23:39:00,77.7,72.0,29.98,SE,135,0.0,2.0,83,0.00,,,0.01,weatherlink.com 1.10,2013-04-08 03:39:00,
2013-04-07 23:54:00,78.1,73.0,29.98,SE,136,0.0,0.0,83,0.00,,,0.01,weatherlink.com 1.10,2013-04-08 03:54:00,